Annapolis, Indiana
Current Conditions -  °F | °C
As of 7:15 AM on Sunday 23 Nov 2014 (Local Time) from KPRG Reporting Station
Clear Clear  
Wind Chill:   Ceiling: Unl
Heat Index:   Visibility: 10mi
Dew Point:   Wind: 17mph
Humidity: 82%   Direction: 160°SSE
Pressure: 29.84"   Gusts: 21mph
Location:  39.8468°N, 87.2662°W
Report Text: KPRG 231215Z AUTO 16015G18KT 10SM CLR 10/07 A2984 RMK AO2 T00950065
Loading
Personal Weather Stations






























Interactive Weather Map New forecast layout! Learn more

10-Day Weather Forecast

Advertisements
Track Severe Weather on mobile